Time;durP1;ratioP1;P1;durP2;ratioP2;P2;SDS_P1;SDS_P2;PMS_P1;PMS_P2;Temp;Humidity;BMP_temperature;BMP_pressure;BME280_temperature;BME280_humidity;BME280_pressure;Samples;Min_cycle;Max_cycle;Signal;HPM_P1;HPM_P2
2024/01/27 00:01:07;;;;;;;18.90;4.13;;;;;;;;;;5077657;28;20032;-96
2024/01/27 00:03:33;;;;;;;16.57;3.80;;;;;;;;;;5057847;28;20464;-96
2024/01/27 00:06:07;;;;;;;20.20;4.53;;;;;;;;;;5076139;28;20270;-96
2024/01/27 00:08:35;;;;;;;20.23;4.10;;;;;;;;;;5038958;28;20421;-96
2024/01/27 00:11:01;;;;;;;13.30;3.80;;;;;;;;;;5052838;28;20047;-96
2024/01/27 00:13:30;;;;;;;13.35;4.05;;;;;;;;;;5060831;28;20024;-95
2024/01/27 00:15:55;;;;;;;14.35;4.38;;;;;;;;;;5075595;28;20491;-95
2024/01/27 00:18:23;;;;;;;12.93;4.20;;;;;;;;;;5075007;28;20012;-96
2024/01/27 00:20:48;;;;;;;19.17;4.20;;;;;;;;;;5056591;28;20079;-95
2024/01/27 00:23:13;;;;;;;10.80;3.77;;;;;;;;;;5074949;28;20021;-95
2024/01/27 00:25:39;;;;;;;17.83;4.60;;;;;;;;;;5056037;28;20040;-96
2024/01/27 00:28:04;;;;;;;18.50;4.03;;;;;;;;;;5038189;28;20021;-96
2024/01/27 00:30:29;;;;;;;22.27;4.57;;;;;;;;;;5047800;28;20435;-96
2024/01/27 00:32:55;;;;;;;21.63;4.43;;;;;;;;;;5078376;28;20445;-95
2024/01/27 00:35:20;;;;;;;20.33;4.73;;;;;;;;;;5058751;28;20073;-96
2024/01/27 00:37:46;;;;;;;18.87;4.50;;;;;;;;;;5062563;28;20275;-94
2024/01/27 00:40:14;;;;;;;16.57;3.90;;;;;;;;;;5055111;28;20037;-95
2024/01/27 00:42:40;;;;;;;16.92;4.72;;;;;;;;;;5060534;28;20021;-96
2024/01/27 00:45:05;;;;;;;22.58;4.22;;;;;;;;;;5081576;28;20023;-95
2024/01/27 00:47:31;;;;;;;16.97;4.60;;;;;;;;;;5061959;28;20012;-94
2024/01/27 00:49:56;;;;;;;25.27;5.53;;;;;;;;;;5080390;28;20036;-95
2024/01/27 00:52:21;;;;;;;20.13;4.43;;;;;;;;;;5060259;28;20636;-94
2024/01/27 00:54:47;;;;;;;25.90;5.30;;;;;;;;;;5079931;28;20017;-95
2024/01/27 00:57:12;;;;;;;16.77;4.50;;;;;;;;;;5067767;28;20037;-95
2024/01/27 00:59:38;;;;;;;19.93;4.50;;;;;;;;;;5075008;28;20043;-94
2024/01/27 01:02:03;;;;;;;17.73;4.72;;;;;;;;;;5054390;28;20017;-96
2024/01/27 01:04:30;;;;;;;25.00;5.50;;;;;;;;;;5091791;28;20406;-96
2024/01/27 01:06:56;;;;;;;20.80;5.10;;;;;;;;;;5088860;28;20009;-95
2024/01/27 01:09:21;;;;;;;24.80;4.73;;;;;;;;;;5066700;28;20025;-95
2024/01/27 01:11:46;;;;;;;21.50;5.00;;;;;;;;;;5048157;28;20079;-94
2024/01/27 01:14:12;;;;;;;18.58;6.05;;;;;;;;;;5055670;28;20053;-93
2024/01/27 01:16:37;;;;;;;20.53;5.00;;;;;;;;;;5050747;28;20108;-96
2024/01/27 01:19:02;;;;;;;21.47;5.10;;;;;;;;;;5076274;28;20047;-95
2024/01/27 01:21:28;;;;;;;21.50;5.33;;;;;;;;;;5080836;28;20025;-95
2024/01/27 01:23:53;;;;;;;33.45;4.90;;;;;;;;;;5056913;28;20017;-96
2024/01/27 01:26:18;;;;;;;20.50;5.23;;;;;;;;;;5074289;28;20521;-96
2024/01/27 01:28:44;;;;;;;18.63;4.77;;;;;;;;;;5075808;28;20039;-96
2024/01/27 01:31:09;;;;;;;20.03;5.17;;;;;;;;;;5076216;28;20124;-96
2024/01/27 01:33:34;;;;;;;16.90;5.20;;;;;;;;;;5076284;28;20032;-96
2024/01/27 01:36:00;;;;;;;23.13;4.80;;;;;;;;;;5076356;28;20024;-96
2024/01/27 01:38:25;;;;;;;23.83;5.50;;;;;;;;;;5057700;28;20027;-96
2024/01/27 01:40:51;;;;;;;17.53;5.40;;;;;;;;;;5074688;28;20066;-96
2024/01/27 01:43:18;;;;;;;23.23;5.45;;;;;;;;;;5077421;28;20040;-96
2024/01/27 01:45:43;;;;;;;16.60;5.27;;;;;;;;;;5058272;28;20071;-96
2024/01/27 01:48:09;;;;;;;15.85;5.57;;;;;;;;;;5084753;28;20105;-96
2024/01/27 01:50:34;;;;;;;17.70;4.63;;;;;;;;;;5069189;28;20016;-95
2024/01/27 01:53:00;;;;;;;16.35;4.57;;;;;;;;;;5070919;28;20041;-96
2024/01/27 01:55:26;;;;;;;24.53;5.10;;;;;;;;;;5069396;28;20024;-95
2024/01/27 01:57:54;;;;;;;16.33;5.50;;;;;;;;;;5066897;28;20353;-96
2024/01/27 02:00:21;;;;;;;22.30;5.53;;;;;;;;;;5082713;28;20097;-96
2024/01/27 02:02:46;;;;;;;22.03;5.87;;;;;;;;;;5080646;28;20317;-96
2024/01/27 02:05:12;;;;;;;25.73;5.70;;;;;;;;;;5084998;28;20427;-96
2024/01/27 02:07:56;;;;;;;15.70;5.20;;;;;;;;;;5072075;28;20044;-96
2024/01/27 02:10:52;;;;;;;29.38;6.53;;;;;;;;;;5047952;28;20029;-95
2024/01/27 02:13:18;;;;;;;20.55;5.68;;;;;;;;;;5392223;22;20049;-91
2024/01/27 02:15:44;;;;;;;24.42;6.28;;;;;;;;;;5089071;28;20123;-91
2024/01/27 02:18:09;;;;;;;21.00;5.50;;;;;;;;;;5080965;28;20051;-91
2024/01/27 02:20:34;;;;;;;24.10;6.67;;;;;;;;;;5087373;28;20028;-91
2024/01/27 02:23:03;;;;;;;22.07;6.57;;;;;;;;;;5069298;28;20009;-91
2024/01/27 02:25:28;;;;;;;14.20;6.13;;;;;;;;;;5075614;28;20024;-91
2024/01/27 02:27:53;;;;;;;26.43;5.97;;;;;;;;;;5051892;28;20361;-91
2024/01/27 02:30:19;;;;;;;22.10;6.07;;;;;;;;;;5092141;28;20060;-91
2024/01/27 02:32:44;;;;;;;24.37;6.30;;;;;;;;;;5080112;28;20029;-91
2024/01/27 02:35:09;;;;;;;22.57;6.77;;;;;;;;;;5061406;28;20376;-92
2024/01/27 02:37:34;;;;;;;22.77;6.87;;;;;;;;;;5067445;28;20095;-91
2024/01/27 02:40:00;;;;;;;25.10;6.23;;;;;;;;;;5071593;28;20369;-91
2024/01/27 02:42:25;;;;;;;24.80;6.80;;;;;;;;;;5072014;28;20021;-92
2024/01/27 02:44:50;;;;;;;18.47;5.63;;;;;;;;;;5072243;28;20084;-92
2024/01/27 02:47:15;;;;;;;21.33;6.23;;;;;;;;;;5070113;28;20033;-92
2024/01/27 02:49:40;;;;;;;21.90;6.30;;;;;;;;;;5072508;28;20036;-91
2024/01/27 02:52:06;;;;;;;25.37;6.10;;;;;;;;;;5075042;28;20077;-92
2024/01/27 02:54:31;;;;;;;20.57;5.57;;;;;;;;;;5056685;28;20748;-92
2024/01/27 02:56:56;;;;;;;20.70;6.17;;;;;;;;;;5078030;28;20040;-95
2024/01/27 02:59:21;;;;;;;27.97;5.73;;;;;;;;;;5064301;28;20013;-94
2024/01/27 03:01:47;;;;;;;25.13;6.50;;;;;;;;;;5064715;28;20017;-94
2024/01/27 03:04:12;;;;;;;18.77;5.45;;;;;;;;;;5069186;28;20017;-95
2024/01/27 03:06:37;;;;;;;24.97;6.13;;;;;;;;;;5067851;28;20020;-92
2024/01/27 03:09:03;;;;;;;20.47;5.87;;;;;;;;;;5076601;28;20377;-94
2024/01/27 03:11:28;;;;;;;18.73;6.23;;;;;;;;;;5090931;28;20514;-94
2024/01/27 03:13:54;;;;;;;17.07;6.00;;;;;;;;;;5077996;28;20039;-93
2024/01/27 03:16:19;;;;;;;18.10;5.67;;;;;;;;;;5065482;28;20290;-94
2024/01/27 03:18:45;;;;;;;20.60;6.37;;;;;;;;;;5062865;28;20073;-93
2024/01/27 03:21:10;;;;;;;25.13;6.53;;;;;;;;;;5090938;28;20020;-94
2024/01/27 03:23:36;;;;;;;19.37;6.37;;;;;;;;;;5077718;28;20104;-93
2024/01/27 03:26:01;;;;;;;15.97;5.90;;;;;;;;;;5059524;28;20472;-94
2024/01/27 03:28:27;;;;;;;22.90;6.25;;;;;;;;;;5058773;28;20052;-94
2024/01/27 03:30:52;;;;;;;25.13;6.73;;;;;;;;;;5071705;28;20490;-93
2024/01/27 03:33:17;;;;;;;18.87;6.27;;;;;;;;;;5075930;28;20021;-94
2024/01/27 03:35:43;;;;;;;22.73;7.03;;;;;;;;;;5072265;28;20392;-93
2024/01/27 03:38:08;;;;;;;27.30;6.47;;;;;;;;;;5058329;28;20048;-94
2024/01/27 03:40:34;;;;;;;24.98;6.97;;;;;;;;;;5060879;28;20028;-94
2024/01/27 03:42:59;;;;;;;24.40;6.10;;;;;;;;;;5075749;28;20016;-93
2024/01/27 03:45:24;;;;;;;25.90;6.53;;;;;;;;;;5079357;28;20035;-94
2024/01/27 03:47:49;;;;;;;21.97;6.43;;;;;;;;;;5079461;28;20087;-93
2024/01/27 03:50:14;;;;;;;19.57;5.90;;;;;;;;;;5066825;28;20503;-93
2024/01/27 03:52:41;;;;;;;20.13;6.00;;;;;;;;;;5066353;28;20032;-93
2024/01/27 03:55:06;;;;;;;20.08;6.68;;;;;;;;;;5087461;28;20024;-93
2024/01/27 03:57:31;;;;;;;20.07;6.00;;;;;;;;;;5055434;28;20436;-93
2024/01/27 03:59:57;;;;;;;28.87;6.60;;;;;;;;;;5072796;28;20036;-94
2024/01/27 04:02:22;;;;;;;26.17;7.13;;;;;;;;;;5058598;28;20052;-94
2024/01/27 04:04:47;;;;;;;26.87;6.50;;;;;;;;;;5063487;28;20287;-93
2024/01/27 04:07:12;;;;;;;25.53;6.70;;;;;;;;;;5071897;28;20016;-93
2024/01/27 04:09:38;;;;;;;24.43;6.37;;;;;;;;;;5072726;28;20028;-93
2024/01/27 04:12:03;;;;;;;20.97;6.30;;;;;;;;;;5072739;28;20723;-94
2024/01/27 04:14:28;;;;;;;18.50;6.47;;;;;;;;;;5057751;28;20024;-94
2024/01/27 04:16:54;;;;;;;23.93;7.10;;;;;;;;;;5074248;28;20112;-94
2024/01/27 04:19:19;;;;;;;25.30;6.73;;;;;;;;;;5071534;28;20484;-95
2024/01/27 04:21:44;;;;;;;17.80;6.18;;;;;;;;;;5068694;28;20020;-94
2024/01/27 04:24:10;;;;;;;23.77;6.47;;;;;;;;;;5074182;28;20078;-95
2024/01/27 04:26:35;;;;;;;26.97;7.07;;;;;;;;;;5076448;28;20017;-96
2024/01/27 04:29:00;;;;;;;25.37;7.47;;;;;;;;;;5085645;28;20013;-93
2024/01/27 04:31:25;;;;;;;21.57;7.43;;;;;;;;;;5068418;28;20790;-95
2024/01/27 04:33:51;;;;;;;26.77;6.60;;;;;;;;;;5067231;28;20472;-94
2024/01/27 04:36:27;;;;;;;29.53;7.20;;;;;;;;;;5047024;28;20499;-96
2024/01/27 04:38:53;;;;;;;17.23;6.00;;;;;;;;;;5057277;28;20279;-96
2024/01/27 04:41:32;;;;;;;18.20;6.53;;;;;;;;;;5075842;28;20020;-95
2024/01/27 04:44:02;;;;;;;23.20;6.85;;;;;;;;;;5060704;28;20472;-96
2024/01/27 04:46:29;;;;;;;20.35;6.82;;;;;;;;;;5001984;28;20141;-96
2024/01/27 04:48:54;;;;;;;25.33;6.63;;;;;;;;;;4995848;28;20055;-95
2024/01/27 04:54:05;;;;;;;17.88;6.28;;;;;;;;;;5082314;28;20615;-95
2024/01/27 04:56:39;;;;;;;17.73;7.00;;;;;;;;;;5082829;28;20012;-95
2024/01/27 04:59:13;;;;;;;23.30;6.88;;;;;;;;;;5058127;28;20391;-96
2024/01/27 05:01:39;;;;;;;16.98;6.47;;;;;;;;;;5057163;28;20074;-91
2024/01/27 05:04:10;;;;;;;18.10;6.70;;;;;;;;;;5075843;28;20024;-95
2024/01/27 05:06:35;;;;;;;15.80;6.68;;;;;;;;;;5071909;28;20115;-90
2024/01/27 05:09:00;;;;;;;20.97;9.63;;;;;;;;;;5081308;28;20020;-92
2024/01/27 05:11:28;;;;;;;25.43;10.47;;;;;;;;;;5084196;28;20017;-92
2024/01/27 05:13:54;;;;;;;23.23;9.85;;;;;;;;;;5062120;28;20039;-92
2024/01/27 05:16:19;;;;;;;19.90;7.57;;;;;;;;;;5080488;28;20001;-92
2024/01/27 05:18:44;;;;;;;29.70;8.97;;;;;;;;;;5075810;28;20025;-93
2024/01/27 05:21:09;;;;;;;25.83;7.97;;;;;;;;;;5070038;28;20029;-92
2024/01/27 05:23:34;;;;;;;29.63;8.27;;;;;;;;;;5068014;28;20028;-94
2024/01/27 05:26:00;;;;;;;17.47;7.40;;;;;;;;;;5048265;28;20040;-93
2024/01/27 05:28:25;;;;;;;19.63;8.13;;;;;;;;;;5060728;28;20038;-93
2024/01/27 05:30:50;;;;;;;22.37;8.40;;;;;;;;;;5074341;28;20020;-94
2024/01/27 05:33:16;;;;;;;21.07;8.10;;;;;;;;;;5077737;28;20031;-93
2024/01/27 05:35:41;;;;;;;24.30;8.40;;;;;;;;;;5063540;28;20021;-93
2024/01/27 05:38:06;;;;;;;28.07;9.50;;;;;;;;;;5076085;28;20021;-93
2024/01/27 05:40:34;;;;;;;24.87;9.17;;;;;;;;;;5077048;28;20092;-96
2024/01/27 05:43:02;;;;;;;22.15;8.85;;;;;;;;;;5047344;28;20025;-96
2024/01/27 05:45:28;;;;;;;40.88;14.10;;;;;;;;;;5077888;28;20017;-96
2024/01/27 05:47:54;;;;;;;25.52;9.15;;;;;;;;;;5075996;28;20030;-95
2024/01/27 05:50:26;;;;;;;21.73;8.67;;;;;;;;;;5075450;28;20048;-96
2024/01/27 05:52:51;;;;;;;29.23;9.07;;;;;;;;;;5082687;28;20031;-96
2024/01/27 05:55:17;;;;;;;24.97;9.40;;;;;;;;;;5083627;28;20016;-96
2024/01/27 05:57:44;;;;;;;22.05;8.90;;;;;;;;;;5080072;28;20032;-96
2024/01/27 06:00:09;;;;;;;24.47;9.37;;;;;;;;;;5077424;28;20017;-95
2024/01/27 06:02:36;;;;;;;25.73;8.67;;;;;;;;;;5079811;28;20332;-94
2024/01/27 06:05:01;;;;;;;27.10;10.93;;;;;;;;;;5078500;28;20025;-96
2024/01/27 06:07:34;;;;;;;25.70;9.97;;;;;;;;;;5061278;28;20032;-96
2024/01/27 06:10:05;;;;;;;27.52;9.77;;;;;;;;;;5077230;28;20028;-95
2024/01/27 06:12:31;;;;;;;32.22;9.85;;;;;;;;;;5085126;28;20012;-96
2024/01/27 06:14:58;;;;;;;27.37;9.73;;;;;;;;;;5070411;28;20530;-96
2024/01/27 06:17:23;;;;;;;34.53;9.80;;;;;;;;;;5077806;28;20013;-96
2024/01/27 06:22:43;;;;;;;28.83;10.75;;;;;;;;;;5200026;22;20052;-95
2024/01/27 06:25:10;;;;;;;27.10;9.77;;;;;;;;;;5089514;28;20043;-94
2024/01/27 06:27:37;;;;;;;29.47;10.07;;;;;;;;;;5075370;28;20725;-91
2024/01/27 06:30:10;;;;;;;27.15;9.48;;;;;;;;;;5090650;28;20043;-92
2024/01/27 06:32:35;;;;;;;28.25;9.77;;;;;;;;;;5079790;28;20052;-91
2024/01/27 06:35:10;;;;;;;22.17;8.90;;;;;;;;;;5087211;28;20101;-95
2024/01/27 06:37:53;;;;;;;24.70;10.38;;;;;;;;;;5055906;28;20025;-93
2024/01/27 06:40:37;;;;;;;29.08;8.93;;;;;;;;;;5103060;28;20076;-94
2024/01/27 06:43:02;;;;;;;25.17;10.45;;;;;;;;;;5088221;28;20020;-91
2024/01/27 06:45:28;;;;;;;29.43;11.13;;;;;;;;;;5093763;28;20017;-96
2024/01/27 06:51:15;;;;;;;23.42;9.90;;;;;;;;;;4999111;28;20876;-96
2024/01/27 06:56:51;;;;;;;30.33;10.17;;;;;;;;;;5277253;22;20814;-93
2024/01/27 06:59:16;;;;;;;32.75;11.65;;;;;;;;;;5094533;28;20073;-92
2024/01/27 07:01:48;;;;;;;28.90;11.33;;;;;;;;;;5078393;28;20766;-94
2024/01/27 07:04:14;;;;;;;30.10;11.25;;;;;;;;;;5084068;28;20028;-92
2024/01/27 07:06:39;;;;;;;27.13;10.90;;;;;;;;;;5084056;28;20017;-94
2024/01/27 07:09:04;;;;;;;29.53;9.97;;;;;;;;;;5083805;28;20021;-94
2024/01/27 07:11:29;;;;;;;25.70;9.33;;;;;;;;;;5090570;28;20070;-92
2024/01/27 07:13:54;;;;;;;25.90;9.20;;;;;;;;;;5080948;28;20048;-92
2024/01/27 07:16:20;;;;;;;20.73;9.43;;;;;;;;;;5072527;28;20088;-92
2024/01/27 07:18:45;;;;;;;29.87;9.37;;;;;;;;;;5063989;28;20025;-93
2024/01/27 07:21:14;;;;;;;30.83;9.73;;;;;;;;;;5062976;28;20120;-93
2024/01/27 07:23:39;;;;;;;27.70;9.98;;;;;;;;;;5063891;28;20036;-92
2024/01/27 07:26:04;;;;;;;32.00;10.10;;;;;;;;;;5061563;28;20067;-93
2024/01/27 07:28:30;;;;;;;29.23;9.40;;;;;;;;;;5058829;28;20436;-92
2024/01/27 07:30:55;;;;;;;25.20;9.47;;;;;;;;;;5072646;28;20692;-96
2024/01/27 07:33:29;;;;;;;29.33;11.10;;;;;;;;;;5060900;28;20016;-93
2024/01/27 07:36:05;;;;;;;;;;;;;;;;;;;;;
2024/01/27 07:38:30;;;;;;;28.67;10.23;;;;;;;;;;5068562;28;20060;-92
2024/01/27 07:40:56;;;;;;;33.50;11.00;;;;;;;;;;5071865;28;20120;-93
2024/01/27 07:43:21;;;;;;;29.97;10.40;;;;;;;;;;5076108;28;20021;-91
2024/01/27 07:45:55;;;;;;;25.13;10.57;;;;;;;;;;5080372;28;20024;-92
2024/01/27 07:48:20;;;;;;;23.60;10.55;;;;;;;;;;5081041;28;20012;-92
2024/01/27 07:50:48;;;;;;;33.97;10.73;;;;;;;;;;5078082;22;20053;-92
2024/01/27 07:53:22;;;;;;;21.75;9.77;;;;;;;;;;5090714;28;20019;-91
2024/01/27 07:55:59;;;;;;;24.70;9.88;;;;;;;;;;5103251;28;20035;-91
2024/01/27 07:58:24;;;;;;;29.15;9.95;;;;;;;;;;5108113;28;20048;-90
2024/01/27 08:00:49;;;;;;;30.27;10.73;;;;;;;;;;5082818;28;20021;-90
2024/01/27 08:03:15;;;;;;;28.93;10.03;;;;;;;;;;5087154;28;20034;-91
2024/01/27 08:05:40;;;;;;;28.83;9.80;;;;;;;;;;5080123;28;20033;-86
2024/01/27 08:08:05;;;;;;;36.30;9.93;;;;;;;;;;5069698;28;20052;-87
2024/01/27 08:10:30;;;;;;;27.87;10.20;;;;;;;;;;5059120;28;20009;-88
2024/01/27 08:12:56;;;;;;;32.00;9.73;;;;;;;;;;5064853;28;20430;-85
2024/01/27 08:15:21;;;;;;;34.10;10.67;;;;;;;;;;5069408;28;20020;-85
2024/01/27 08:17:46;;;;;;;33.63;10.73;;;;;;;;;;5063776;28;20039;-86
2024/01/27 08:20:12;;;;;;;30.63;9.80;;;;;;;;;;5062827;28;20060;-84
2024/01/27 08:22:37;;;;;;;36.95;10.40;;;;;;;;;;5056856;28;20440;-86
2024/01/27 08:25:02;;;;;;;37.13;10.40;;;;;;;;;;5061380;28;20017;-85
2024/01/27 08:27:27;;;;;;;26.23;10.03;;;;;;;;;;5069199;28;20421;-85
2024/01/27 08:29:53;;;;;;;38.00;12.03;;;;;;;;;;5069048;28;20042;-86
2024/01/27 08:32:18;;;;;;;39.53;13.03;;;;;;;;;;5067460;28;20026;-87
2024/01/27 08:34:43;;;;;;;34.53;14.20;;;;;;;;;;5064902;28;20139;-87
2024/01/27 08:37:18;;;;;;;43.33;12.07;;;;;;;;;;5070704;28;20361;-87
2024/01/27 08:39:43;;;;;;;27.80;11.47;;;;;;;;;;5064516;28;20028;-88
2024/01/27 08:42:08;;;;;;;31.23;10.03;;;;;;;;;;5067046;28;20259;-87
2024/01/27 08:44:34;;;;;;;27.93;10.97;;;;;;;;;;5065705;28;20035;-87
2024/01/27 08:46:59;;;;;;;30.47;10.17;;;;;;;;;;5067958;28;20016;-87
2024/01/27 08:49:25;;;;;;;32.28;10.40;;;;;;;;;;5068066;28;20488;-87
2024/01/27 08:51:50;;;;;;;35.57;11.57;;;;;;;;;;5071311;28;20055;-88
2024/01/27 08:54:15;;;;;;;37.50;10.73;;;;;;;;;;5067959;28;20039;-86
2024/01/27 08:56:41;;;;;;;33.90;11.73;;;;;;;;;;5073274;28;20012;-86
2024/01/27 08:59:06;;;;;;;29.90;10.63;;;;;;;;;;5068612;28;20024;-86
2024/01/27 09:01:31;;;;;;;28.40;12.07;;;;;;;;;;5067869;28;20016;-86
2024/01/27 09:03:57;;;;;;;41.80;11.70;;;;;;;;;;5075738;28;20020;-85
2024/01/27 09:06:22;;;;;;;31.60;12.10;;;;;;;;;;5065203;28;20028;-87
2024/01/27 09:08:47;;;;;;;24.70;10.97;;;;;;;;;;5053096;28;20016;-85
2024/01/27 09:11:12;;;;;;;26.30;10.67;;;;;;;;;;5064364;28;20416;-86
2024/01/27 09:13:37;;;;;;;37.70;12.17;;;;;;;;;;5065057;28;20012;-86
2024/01/27 09:16:03;;;;;;;30.43;11.60;;;;;;;;;;5062229;28;20369;-86
2024/01/27 09:18:28;;;;;;;33.23;11.87;;;;;;;;;;5060272;28;20051;-87
2024/01/27 09:20:53;;;;;;;38.20;11.17;;;;;;;;;;5052420;28;20044;-87
2024/01/27 09:23:21;;;;;;;26.40;10.73;;;;;;;;;;5047489;28;20480;-86
2024/01/27 09:25:46;;;;;;;41.55;12.65;;;;;;;;;;5067216;28;20036;-87
2024/01/27 09:28:12;;;;;;;37.60;12.20;;;;;;;;;;5069488;28;20023;-86
2024/01/27 09:30:37;;;;;;;30.63;11.97;;;;;;;;;;5074244;28;20037;-86
2024/01/27 09:33:02;;;;;;;33.77;10.97;;;;;;;;;;5068091;28;20080;-88
2024/01/27 09:35:27;;;;;;;32.00;10.23;;;;;;;;;;5068568;28;20012;-87
2024/01/27 09:37:53;;;;;;;42.50;11.33;;;;;;;;;;5066995;28;20145;-88
2024/01/27 09:40:18;;;;;;;33.73;10.30;;;;;;;;;;5069314;28;20036;-90
2024/01/27 09:42:47;;;;;;;37.65;11.25;;;;;;;;;;5082591;28;20033;-88
2024/01/27 09:45:13;;;;;;;31.67;9.30;;;;;;;;;;5077496;28;20027;-88
2024/01/27 09:47:39;;;;;;;30.43;10.07;;;;;;;;;;5074740;28;20442;-88
2024/01/27 09:50:04;;;;;;;35.72;8.98;;;;;;;;;;5072679;28;20027;-88
2024/01/27 09:52:29;;;;;;;34.63;8.73;;;;;;;;;;5069052;28;20067;-88
2024/01/27 09:54:54;;;;;;;25.30;7.77;;;;;;;;;;5064019;28;20431;-88
2024/01/27 09:57:20;;;;;;;29.83;8.50;;;;;;;;;;5078663;28;20069;-88
2024/01/27 09:59:47;;;;;;;29.77;8.55;;;;;;;;;;5070772;28;20050;-88
2024/01/27 10:02:13;;;;;;;30.40;8.30;;;;;;;;;;5076114;28;20021;-90
2024/01/27 10:04:40;;;;;;;23.75;8.98;;;;;;;;;;5066714;28;20029;-88
2024/01/27 10:07:05;;;;;;;26.67;8.60;;;;;;;;;;5069278;28;20107;-88
2024/01/27 10:09:31;;;;;;;26.97;8.33;;;;;;;;;;5065491;28;20035;-87
2024/01/27 10:11:57;;;;;;;28.50;9.07;;;;;;;;;;5069777;28;20016;-85
2024/01/27 10:14:22;;;;;;;24.48;7.22;;;;;;;;;;5064220;28;20039;-86
2024/01/27 10:16:47;;;;;;;31.13;8.57;;;;;;;;;;5066487;28;20447;-87
2024/01/27 10:19:20;;;;;;;24.93;7.90;;;;;;;;;;5069611;28;20389;-87
2024/01/27 10:21:46;;;;;;;25.77;8.10;;;;;;;;;;5047139;28;20025;-86
2024/01/27 10:24:12;;;;;;;29.25;7.30;;;;;;;;;;5053324;28;20104;-85
2024/01/27 10:26:37;;;;;;;34.03;7.03;;;;;;;;;;5049885;28;20503;-85
2024/01/27 10:29:02;;;;;;;23.97;7.43;;;;;;;;;;5071032;28;20016;-88
2024/01/27 10:31:28;;;;;;;28.50;7.80;;;;;;;;;;5060663;28;20087;-85
2024/01/27 10:33:54;;;;;;;27.58;7.25;;;;;;;;;;5051459;28;20619;-88
2024/01/27 10:36:19;;;;;;;26.00;6.75;;;;;;;;;;5070958;28;20096;-89
2024/01/27 10:38:45;;;;;;;29.20;7.23;;;;;;;;;;5067805;28;20032;-88
2024/01/27 10:41:10;;;;;;;29.43;6.37;;;;;;;;;;5069025;28;20668;-89
2024/01/27 10:43:36;;;;;;;26.17;6.53;;;;;;;;;;5075546;28;20016;-87
2024/01/27 10:46:03;;;;;;;26.52;6.35;;;;;;;;;;5069725;28;20032;-87
2024/01/27 10:48:29;;;;;;;22.93;6.40;;;;;;;;;;5070471;28;20115;-87
2024/01/27 10:50:54;;;;;;;23.40;6.22;;;;;;;;;;5060556;28;20423;-87
2024/01/27 10:53:27;;;;;;;27.43;7.57;;;;;;;;;;5065557;28;20032;-86
2024/01/27 10:55:54;;;;;;;22.92;6.57;;;;;;;;;;5066605;28;20032;-88
2024/01/27 10:58:20;;;;;;;29.23;6.53;;;;;;;;;;5063939;28;20016;-87
2024/01/27 11:00:46;;;;;;;25.20;6.37;;;;;;;;;;5069532;28;20093;-87
2024/01/27 11:03:11;;;;;;;23.35;6.35;;;;;;;;;;5071413;28;20059;-87
2024/01/27 11:05:37;;;;;;;26.63;5.77;;;;;;;;;;5059365;28;20476;-86
2024/01/27 11:08:04;;;;;;;25.98;5.72;;;;;;;;;;5068890;28;20017;-87
2024/01/27 11:10:35;;;;;;;27.80;5.95;;;;;;;;;;5069783;28;20119;-87
2024/01/27 11:13:04;;;;;;;19.37;6.23;;;;;;;;;;5070472;28;20669;-87
2024/01/27 11:15:29;;;;;;;22.15;5.68;;;;;;;;;;5048086;28;20067;-86
2024/01/27 11:17:59;;;;;;;21.83;5.67;;;;;;;;;;5070294;28;20512;-87
2024/01/27 11:20:25;;;;;;;26.40;6.15;;;;;;;;;;5069135;28;20040;-87
2024/01/27 11:22:50;;;;;;;23.47;5.30;;;;;;;;;;5069220;28;20357;-87
2024/01/27 11:25:16;;;;;;;19.90;5.17;;;;;;;;;;5068301;28;20035;-87
2024/01/27 11:27:43;;;;;;;23.08;5.47;;;;;;;;;;5070040;28;20099;-87
2024/01/27 11:30:30;;;;;;;24.88;4.97;;;;;;;;;;5070101;28;20017;-87
2024/01/27 11:33:00;;;;;;;19.75;5.22;;;;;;;;;;5070364;28;20028;-88
2024/01/27 11:35:25;;;;;;;17.80;4.22;;;;;;;;;;5071094;28;20042;-88
2024/01/27 11:37:51;;;;;;;24.47;4.37;;;;;;;;;;5071843;28;20020;-88
2024/01/27 11:40:16;;;;;;;13.23;3.70;;;;;;;;;;5069805;28;20423;-88
2024/01/27 11:42:42;;;;;;;19.43;4.40;;;;;;;;;;5070402;28;20480;-89
2024/01/27 11:45:10;;;;;;;15.38;4.50;;;;;;;;;;5063683;28;20569;-88
2024/01/27 12:03:05;;;;;;;15.50;3.50;;;;;;;;;;5787587;22;20050;-87
2024/01/27 12:05:30;;;;;;;12.40;2.60;;;;;;;;;;5094942;28;21100;-86
2024/01/27 12:07:56;;;;;;;15.40;3.50;;;;;;;;;;5080214;28;20070;-86
2024/01/27 12:10:21;;;;;;;15.90;5.57;;;;;;;;;;5071968;28;20017;-86
2024/01/27 12:12:46;;;;;;;18.90;5.80;;;;;;;;;;5068483;28;20017;-86
2024/01/27 12:15:12;;;;;;;19.23;4.63;;;;;;;;;;5062417;28;20027;-87
2024/01/27 12:17:37;;;;;;;35.72;9.73;;;;;;;;;;5068537;28;20095;-87
2024/01/27 12:20:12;;;;;;;31.00;7.57;;;;;;;;;;5069178;28;20029;-87
2024/01/27 12:22:37;;;;;;;38.37;10.03;;;;;;;;;;5067480;28;20096;-86
2024/01/27 12:25:15;;;;;;;16.83;4.53;;;;;;;;;;5049726;28;20444;-87
2024/01/27 12:27:40;;;;;;;17.13;4.50;;;;;;;;;;5049610;28;20030;-87
2024/01/27 12:30:06;;;;;;;14.60;3.70;;;;;;;;;;5049607;28;20028;-87
2024/01/27 12:32:31;;;;;;;12.80;3.37;;;;;;;;;;5063476;28;20279;-86
2024/01/27 12:34:59;;;;;;;14.10;2.80;;;;;;;;;;5067404;28;20025;-85
2024/01/27 12:37:25;;;;;;;16.70;3.70;;;;;;;;;;5068342;28;20436;-85
2024/01/27 12:39:50;;;;;;;13.93;2.95;;;;;;;;;;5065170;28;20119;-83
2024/01/27 12:42:16;;;;;;;14.00;3.40;;;;;;;;;;5067678;28;20102;-83
2024/01/27 12:44:41;;;;;;;16.45;3.90;;;;;;;;;;5053111;28;20056;-84
2024/01/27 12:47:07;;;;;;;12.63;3.03;;;;;;;;;;5068500;28;20490;-86
2024/01/27 12:49:32;;;;;;;11.20;3.07;;;;;;;;;;5068297;28;20475;-84
2024/01/27 12:51:57;;;;;;;15.87;3.50;;;;;;;;;;5065140;28;20024;-84
2024/01/27 12:54:23;;;;;;;13.20;3.03;;;;;;;;;;5063069;28;20016;-84
2024/01/27 12:56:48;;;;;;;17.17;3.10;;;;;;;;;;5067666;28;20032;-83
2024/01/27 12:59:14;;;;;;;12.00;3.13;;;;;;;;;;5067125;28;20028;-84
2024/01/27 13:01:39;;;;;;;10.93;3.07;;;;;;;;;;5064202;28;20103;-83
2024/01/27 13:04:04;;;;;;;13.70;3.38;;;;;;;;;;5052314;28;20029;-85
2024/01/27 13:06:31;;;;;;;14.93;2.73;;;;;;;;;;5055009;28;20491;-84
2024/01/27 13:08:56;;;;;;;12.98;3.40;;;;;;;;;;5060696;28;20429;-82
2024/01/27 13:11:24;;;;;;;14.57;2.80;;;;;;;;;;5058651;28;20044;-83
2024/01/27 13:13:49;;;;;;;16.73;2.90;;;;;;;;;;5068018;28;20017;-83
2024/01/27 13:16:14;;;;;;;11.73;2.70;;;;;;;;;;5066061;28;20278;-83
2024/01/27 13:18:39;;;;;;;12.67;2.37;;;;;;;;;;5067826;28;20024;-83
2024/01/27 13:21:05;;;;;;;20.53;3.40;;;;;;;;;;5044636;28;20120;-82
2024/01/27 13:23:31;;;;;;;16.92;4.38;;;;;;;;;;5062317;28;20021;-83
2024/01/27 13:25:56;;;;;;;11.20;3.00;;;;;;;;;;5069816;28;20080;-83
2024/01/27 13:28:22;;;;;;;11.33;2.80;;;;;;;;;;5057348;28;20018;-84
2024/01/27 13:30:48;;;;;;;12.37;2.77;;;;;;;;;;5060568;28;20035;-84
2024/01/27 13:33:13;;;;;;;11.27;2.83;;;;;;;;;;5047190;28;20383;-84
2024/01/27 13:35:46;;;;;;;15.33;3.30;;;;;;;;;;5067677;28;20025;-84
2024/01/27 13:38:12;;;;;;;12.13;2.80;;;;;;;;;;5049185;28;20036;-85
2024/01/27 13:40:37;;;;;;;12.05;2.90;;;;;;;;;;5062207;28;20166;-85
2024/01/27 13:43:16;;;;;;;16.67;3.03;;;;;;;;;;5083347;22;20072;-95
2024/01/27 19:38:59;;;;;;;21.65;7.90;;;;;;;;;;2060252;23;20389;-94
2024/01/27 20:19:53;;;;;;;22.38;8.50;;;;;;;;;;5648738;22;20055;-94
2024/01/27 20:22:21;;;;;;;22.17;8.60;;;;;;;;;;4983560;28;20080;-93
2024/01/27 20:25:16;;;;;;;20.90;8.68;;;;;;;;;;4983124;28;20027;-94
2024/01/27 20:30:44;;;;;;;19.05;8.80;;;;;;;;;;5068574;23;20042;-91
2024/01/27 20:49:14;;;;;;;22.48;10.93;;;;;;;;;;5479695;22;20046;-94
2024/01/27 20:51:42;;;;;;;23.83;10.23;;;;;;;;;;4998846;28;20002;-93
2024/01/27 20:56:45;;;;;;;24.83;9.32;;;;;;;;;;5613361;23;20058;-93
2024/01/27 20:59:32;;;;;;;20.15;8.20;;;;;;;;;;4995168;28;20093;-93
2024/01/27 21:02:02;;;;;;;18.30;8.20;;;;;;;;;;4977246;28;20019;-91
2024/01/27 21:04:27;;;;;;;21.60;9.07;;;;;;;;;;4981333;28;20015;-93
2024/01/27 21:09:35;;;;;;;26.13;9.60;;;;;;;;;;5388780;22;20514;-92
2024/01/27 21:12:06;;;;;;;17.83;8.90;;;;;;;;;;4988223;28;20066;-93
2024/01/27 21:14:52;;;;;;;26.53;9.60;;;;;;;;;;4978423;28;20032;-93
